createdAt,value
2022-10-04T00:00:09.697Z,13.36
2022-10-04T00:02:38.777Z,12.60
2022-10-04T00:05:14.081Z,11.60
2022-10-04T00:07:49.135Z,11.33
2022-10-04T00:10:22.507Z,11.87
2022-10-04T00:12:53.340Z,12.27
2022-10-04T00:15:26.314Z,11.99
2022-10-04T00:18:09.517Z,12.46
2022-10-04T00:21:07.845Z,12.77
2022-10-04T00:23:45.075Z,12.89
2022-10-04T00:26:31.880Z,12.36
2022-10-04T00:29:00.141Z,12.28
2022-10-04T00:31:29.319Z,12.35
2022-10-04T00:34:39.252Z,12.65
2022-10-04T00:37:16.984Z,12.80
2022-10-04T00:39:47.848Z,12.58
2022-10-04T00:42:41.824Z,12.25
2022-10-04T00:45:25.118Z,12.19
2022-10-04T00:48:40.500Z,12.49
2022-10-04T00:51:20.511Z,12.42
2022-10-04T00:54:07.964Z,12.12
2022-10-04T00:56:42.300Z,12.36
2022-10-04T00:59:34.768Z,12.39
2022-10-04T01:02:07.149Z,12.55
2022-10-04T01:04:42.518Z,11.84
2022-10-04T01:07:14.205Z,11.24
2022-10-04T01:09:51.100Z,10.63
2022-10-04T01:12:39.984Z,11.27
2022-10-04T01:15:14.231Z,10.96
2022-10-04T01:17:42.494Z,10.54
2022-10-04T01:20:34.552Z,10.38
2022-10-04T01:23:05.541Z,11.39
2022-10-04T01:25:54.527Z,10.85
2022-10-04T01:28:22.980Z,11.37
2022-10-04T01:30:51.277Z,11.93
2022-10-04T01:33:19.688Z,10.60
2022-10-04T01:35:48.336Z,10.63
2022-10-04T01:38:18.083Z,11.11
2022-10-04T01:40:51.232Z,11.55
2022-10-04T01:43:24.981Z,11.59
2022-10-04T01:45:58.761Z,11.46
2022-10-04T01:48:34.084Z,11.37
2022-10-04T01:51:07.539Z,11.53
2022-10-04T01:53:44.323Z,11.66
2022-10-04T01:56:18.503Z,11.70
2022-10-04T01:58:50.464Z,11.59
2022-10-04T02:01:26.687Z,11.68
2022-10-04T02:04:01.041Z,11.84
2022-10-04T02:06:36.233Z,11.32
2022-10-04T02:09:10.480Z,11.25
2022-10-04T02:11:41.551Z,11.53
2022-10-04T02:14:16.967Z,11.17
2022-10-04T02:16:47.806Z,11.89
2022-10-04T02:19:17.532Z,11.52
2022-10-04T02:21:46.633Z,11.84
2022-10-04T02:24:17.758Z,11.92
2022-10-04T02:26:51.286Z,11.32
2022-10-04T02:29:20.515Z,11.60
2022-10-04T02:32:07.999Z,11.36
2022-10-04T02:34:36.965Z,11.73
2022-10-04T02:37:06.559Z,11.89
2022-10-04T02:39:42.092Z,11.51
2022-10-04T02:42:15.565Z,10.89
2022-10-04T02:44:47.253Z,11.15
2022-10-04T02:47:19.725Z,11.15
2022-10-04T02:49:50.679Z,10.82
2022-10-04T02:52:25.837Z,10.15
2022-10-04T02:55:02.863Z,10.23
2022-10-04T02:57:33.922Z,9.92
2022-10-04T03:00:18.816Z,9.68
2022-10-04T03:03:16.120Z,9.97
2022-10-04T03:05:47.901Z,10.55
2022-10-04T03:08:16.253Z,10.54
2022-10-04T03:10:46.992Z,10.47
2022-10-04T03:13:16.301Z,10.35
2022-10-04T03:15:44.996Z,9.77
2022-10-04T03:18:13.247Z,9.49
2022-10-04T03:20:42.489Z,9.43
2022-10-04T03:23:12.934Z,9.52
2022-10-04T03:25:49.598Z,9.27
2022-10-04T03:28:19.389Z,9.63
2022-10-04T03:30:49.414Z,8.69
2022-10-04T03:33:28.958Z,8.88
2022-10-04T03:36:00.674Z,9.30
2022-10-04T03:38:30.176Z,9.46
2022-10-04T03:41:03.089Z,9.48
2022-10-04T03:43:34.682Z,9.22
2022-10-04T03:46:05.500Z,9.27
2022-10-04T03:48:39.042Z,9.28
2022-10-04T03:51:13.502Z,9.57
2022-10-04T03:53:44.923Z,9.72
2022-10-04T03:56:18.849Z,9.81
2022-10-04T03:58:48.610Z,9.02
2022-10-04T04:01:28.876Z,8.57
2022-10-04T04:04:04.596Z,8.90
2022-10-04T04:06:43.270Z,9.26
2022-10-04T04:09:21.582Z,9.50
2022-10-04T04:11:54.302Z,9.35
2022-10-04T04:14:26.123Z,9.13
2022-10-04T04:16:56.225Z,8.91
2022-10-04T04:19:27.070Z,8.50
2022-10-04T04:21:57.389Z,9.28
2022-10-04T04:24:32.332Z,9.38
2022-10-04T04:27:05.419Z,9.52
2022-10-04T04:29:43.777Z,9.51
2022-10-04T04:32:18.794Z,9.43
2022-10-04T04:34:53.036Z,9.99
2022-10-04T04:37:22.107Z,10.02
2022-10-04T04:39:55.393Z,10.11
2022-10-04T04:42:31.828Z,10.25
2022-10-04T04:45:03.066Z,10.43
2022-10-04T04:47:34.439Z,10.47
2022-10-04T04:50:07.853Z,10.47
2022-10-04T04:52:37.284Z,10.36
2022-10-04T04:55:06.906Z,10.72
2022-10-04T04:57:36.637Z,10.60
2022-10-04T05:00:05.475Z,10.77
2022-10-04T05:02:35.928Z,10.76
2022-10-04T05:05:24.749Z,10.50
2022-10-04T05:08:10.638Z,10.19
2022-10-04T05:10:42.136Z,9.47
2022-10-04T05:13:12.720Z,9.43
2022-10-04T05:15:43.100Z,9.12
2022-10-04T05:18:22.902Z,10.01
2022-10-04T05:20:55.500Z,10.50
2022-10-04T05:23:24.184Z,10.28
2022-10-04T05:25:53.435Z,10.72
2022-10-04T05:28:23.196Z,10.91
2022-10-04T05:31:10.963Z,11.19
2022-10-04T05:33:46.244Z,11.40
2022-10-04T05:36:51.908Z,10.99
2022-10-04T05:39:27.903Z,11.15
2022-10-04T05:42:02.677Z,11.37
2022-10-04T05:44:36.980Z,11.48
2022-10-04T05:47:09.435Z,10.95
2022-10-04T05:49:44.775Z,11.73
2022-10-04T05:52:18.224Z,11.53
2022-10-04T05:54:46.713Z,11.24
2022-10-04T05:57:39.909Z,10.50
2022-10-04T06:00:19.000Z,11.78
2022-10-04T06:03:10.850Z,11.63
2022-10-04T06:05:50.249Z,10.32
2022-10-04T06:08:27.846Z,11.71
2022-10-04T06:11:14.311Z,12.33
2022-10-04T06:14:20.655Z,13.14
2022-10-04T06:17:15.209Z,13.93
2022-10-04T06:20:30.697Z,14.21
2022-10-04T06:23:02.169Z,14.01
2022-10-04T06:25:35.080Z,12.88
2022-10-04T06:28:15.776Z,12.81
2022-10-04T06:30:56.785Z,12.60
2022-10-04T06:33:53.607Z,12.45
2022-10-04T06:36:37.193Z,13.33
2022-10-04T06:39:30.340Z,14.40
2022-10-04T06:42:34.290Z,14.31
2022-10-04T06:45:24.388Z,15.76
2022-10-04T06:48:19.297Z,17.18
2022-10-04T06:50:52.700Z,16.74
2022-10-04T06:53:27.848Z,17.31
2022-10-04T06:56:10.736Z,18.57
2022-10-04T06:58:59.707Z,18.67
2022-10-04T07:01:31.137Z,19.06
2022-10-04T07:04:07.139Z,19.75
2022-10-04T07:06:43.538Z,19.63
2022-10-04T07:09:20.955Z,19.86
2022-10-04T07:11:54.659Z,19.76
2022-10-04T07:14:31.097Z,19.84
2022-10-04T07:17:05.361Z,20.78
2022-10-04T07:19:38.189Z,20.79
2022-10-04T07:22:18.487Z,20.42
2022-10-04T07:25:15.817Z,19.49
2022-10-04T07:28:15.094Z,21.28
2022-10-04T07:30:47.346Z,20.04
2022-10-04T07:33:19.980Z,20.43
2022-10-04T07:35:52.047Z,20.36
2022-10-04T07:38:28.235Z,20.56
2022-10-04T07:41:12.031Z,21.16
2022-10-04T07:43:49.554Z,21.96
2022-10-04T07:46:25.417Z,22.13
2022-10-04T07:48:54.464Z,21.27
2022-10-04T07:51:34.205Z,20.84
2022-10-04T07:54:12.529Z,21.16
2022-10-04T07:56:48.676Z,21.80
2022-10-04T07:59:35.065Z,21.90
2022-10-04T08:02:28.932Z,22.57
2022-10-04T08:05:13.088Z,22.73
2022-10-04T08:07:54.844Z,23.26
2022-10-04T08:10:31.376Z,23.43
2022-10-04T08:13:13.429Z,23.97
2022-10-04T08:15:44.220Z,24.03
2022-10-04T08:18:23.386Z,24.27
2022-10-04T08:20:58.280Z,25.00
2022-10-04T08:23:54.379Z,25.84
2022-10-04T08:26:41.937Z,27.01
2022-10-04T08:29:47.408Z,27.47
2022-10-04T08:32:31.079Z,25.18
2022-10-04T08:35:28.890Z,23.80
2022-10-04T08:38:14.831Z,23.48
2022-10-04T08:41:20.692Z,24.29
2022-10-04T08:44:36.166Z,25.46
2022-10-04T08:47:50.468Z,26.25
2022-10-04T08:51:07.717Z,27.00
2022-10-04T08:54:20.564Z,26.72
2022-10-04T08:57:08.616Z,27.47
2022-10-04T09:00:05.915Z,27.58
2022-10-04T09:03:00.151Z,29.09
2022-10-04T09:05:53.552Z,28.78
2022-10-04T09:08:58.861Z,28.92
2022-10-04T09:11:47.312Z,27.32
2022-10-04T09:14:51.294Z,28.07
2022-10-04T09:17:24.372Z,28.91
2022-10-04T09:20:14.021Z,29.46
2022-10-04T09:22:50.066Z,29.61
2022-10-04T09:25:48.879Z,27.47
2022-10-04T09:28:43.887Z,28.02
2022-10-04T09:31:34.102Z,28.85
2022-10-04T09:34:14.287Z,28.46
2022-10-04T09:37:14.867Z,29.41
2022-10-04T09:40:22.101Z,30.14
2022-10-04T09:43:14.349Z,28.91
2022-10-04T09:46:12.181Z,29.29
2022-10-04T09:48:46.740Z,29.01
2022-10-04T09:51:42.851Z,30.54
2022-10-04T09:54:41.075Z,31.62
2022-10-04T09:57:29.196Z,30.63
2022-10-04T10:00:14.592Z,29.84
2022-10-04T10:03:14.917Z,29.51
2022-10-04T10:06:06.889Z,28.18
2022-10-04T10:08:43.215Z,28.88
2022-10-04T10:11:39.567Z,29.86
2022-10-04T10:14:46.852Z,30.36
2022-10-04T10:17:25.988Z,26.17
2022-10-04T10:20:36.481Z,29.29
2022-10-04T10:23:44.180Z,31.00
2022-10-04T10:26:39.368Z,29.89
2022-10-04T10:29:32.739Z,28.27
2022-10-04T10:32:17.084Z,26.50
2022-10-04T10:35:26.298Z,27.13
2022-10-04T10:38:11.961Z,26.89
2022-10-04T10:40:53.820Z,26.18
2022-10-04T10:43:46.725Z,25.23
2022-10-04T10:46:28.664Z,25.41
2022-10-04T10:49:33.569Z,25.49
2022-10-04T10:52:34.261Z,24.62
2022-10-04T10:55:30.388Z,25.12
2022-10-04T10:58:22.808Z,25.84
2022-10-04T11:01:01.256Z,26.12
2022-10-04T11:03:57.511Z,27.17
2022-10-04T11:06:54.677Z,28.45
2022-10-04T11:09:41.888Z,27.85
2022-10-04T11:12:42.407Z,28.30
2022-10-04T11:15:49.605Z,27.15
2022-10-04T11:18:48.079Z,26.81
2022-10-04T11:21:50.685Z,26.88
2022-10-04T11:25:03.332Z,26.62
2022-10-04T11:27:49.199Z,26.93
2022-10-04T11:30:25.253Z,26.62
2022-10-04T11:33:26.754Z,26.70
2022-10-04T11:36:23.744Z,26.08
2022-10-04T11:39:23.204Z,26.91
2022-10-04T11:41:57.640Z,27.45
2022-10-04T11:44:41.314Z,28.29
2022-10-04T11:47:24.229Z,28.65
2022-10-04T11:50:12.405Z,29.20
2022-10-04T11:53:15.791Z,29.73
2022-10-04T11:56:04.607Z,28.68
2022-10-04T11:58:50.573Z,29.04
2022-10-04T12:01:47.829Z,29.72
2022-10-04T12:04:54.357Z,31.21
2022-10-04T12:07:46.395Z,31.93
2022-10-04T12:10:25.445Z,31.47
2022-10-04T12:13:26.023Z,29.96
2022-10-04T12:16:17.219Z,28.65
2022-10-04T12:19:30.337Z,28.27
2022-10-04T12:22:27.118Z,28.37
2022-10-04T12:25:30.845Z,29.02
2022-10-04T12:28:40.407Z,28.50
2022-10-04T12:31:25.007Z,28.40
2022-10-04T12:34:00.055Z,30.29
2022-10-04T12:36:42.656Z,29.91
2022-10-04T12:39:28.558Z,28.12
2022-10-04T12:42:09.254Z,28.25
2022-10-04T12:44:49.151Z,29.60
2022-10-04T12:47:57.598Z,30.12
2022-10-04T12:50:44.040Z,31.30
2022-10-04T12:53:22.823Z,30.75
2022-10-04T12:56:06.973Z,28.21
2022-10-04T12:58:47.250Z,28.32
2022-10-04T13:01:28.299Z,28.64
2022-10-04T13:04:20.310Z,28.76
2022-10-04T13:07:00.806Z,29.66
2022-10-04T13:09:55.115Z,28.86
2022-10-04T13:12:39.116Z,26.78
2022-10-04T13:15:26.181Z,26.45
2022-10-04T13:18:06.938Z,25.82
2022-10-04T13:20:53.157Z,25.85
2022-10-04T13:23:36.461Z,25.01
2022-10-04T13:26:29.232Z,25.96
2022-10-04T13:29:05.133Z,25.87
2022-10-04T13:31:39.677Z,25.96
2022-10-04T13:34:21.556Z,25.88
2022-10-04T13:37:07.197Z,26.74
2022-10-04T13:39:59.916Z,26.55
2022-10-04T13:42:43.163Z,26.97
2022-10-04T13:45:24.596Z,26.41
2022-10-04T13:48:18.177Z,26.32
2022-10-04T13:51:05.008Z,23.99
2022-10-04T13:54:02.482Z,25.59
2022-10-04T13:56:52.604Z,26.67
2022-10-04T13:59:34.446Z,25.42
2022-10-04T14:02:48.318Z,25.79
2022-10-04T14:05:44.163Z,26.40
2022-10-04T14:09:01.235Z,26.79
2022-10-04T14:11:51.493Z,23.97
2022-10-04T14:15:04.649Z,25.14
2022-10-04T14:18:01.279Z,24.15
2022-10-04T14:21:18.949Z,23.80
2022-10-04T14:24:21.100Z,23.44
2022-10-04T14:27:09.343Z,23.13
2022-10-04T14:30:06.333Z,22.98
2022-10-04T14:33:13.290Z,23.51
2022-10-04T14:35:51.151Z,23.18
2022-10-04T14:38:46.336Z,24.13
2022-10-04T14:41:48.280Z,22.59
2022-10-04T14:44:46.181Z,21.85
2022-10-04T14:47:42.900Z,22.37
2022-10-04T14:50:28.144Z,22.02
2022-10-04T14:53:08.738Z,21.08
2022-10-04T14:56:00.288Z,21.50
2022-10-04T14:58:36.564Z,21.49
2022-10-04T15:01:20.726Z,21.70
2022-10-04T15:04:16.629Z,21.50
2022-10-04T15:06:49.985Z,21.17
2022-10-04T15:09:44.026Z,21.33
2022-10-04T15:15:55.619Z,20.15
2022-10-04T15:18:34.805Z,21.09
2022-10-04T15:21:12.841Z,21.34
2022-10-04T15:23:47.592Z,20.57
2022-10-04T15:26:51.152Z,19.85
2022-10-04T15:29:26.979Z,19.67
2022-10-04T15:32:07.443Z,19.91
2022-10-04T15:34:45.750Z,20.47
2022-10-04T15:37:28.016Z,19.97
2022-10-04T15:40:24.914Z,20.43
2022-10-04T15:43:17.333Z,20.98
2022-10-04T15:46:25.207Z,21.12
2022-10-04T15:49:08.617Z,20.70
2022-10-04T15:52:03.562Z,20.11
2022-10-04T15:54:52.311Z,19.85
2022-10-04T15:57:31.603Z,20.27
2022-10-04T16:00:08.497Z,20.18
2022-10-04T16:02:53.910Z,20.64
2022-10-04T16:05:28.326Z,20.66
2022-10-04T16:08:20.751Z,20.38
2022-10-04T16:11:07.179Z,20.20
2022-10-04T16:14:00.183Z,19.68
2022-10-04T16:17:00.127Z,19.36
2022-10-04T16:19:48.099Z,19.53
2022-10-04T16:22:22.655Z,19.61
2022-10-04T16:24:54.632Z,19.66
2022-10-04T16:27:49.360Z,19.62
2022-10-04T16:30:28.144Z,19.61
2022-10-04T16:33:37.250Z,18.96
2022-10-04T16:36:36.306Z,18.82
2022-10-04T16:39:22.942Z,18.92
2022-10-04T16:42:01.171Z,17.84
2022-10-04T16:44:36.728Z,18.84
2022-10-04T16:47:23.013Z,19.17
2022-10-04T16:49:55.112Z,19.15
2022-10-04T16:52:51.170Z,18.62
2022-10-04T16:55:52.352Z,19.01
2022-10-04T16:58:56.158Z,18.71
2022-10-04T17:01:54.268Z,18.36
2022-10-04T17:04:55.773Z,18.23
2022-10-04T17:07:35.099Z,17.86
2022-10-04T17:10:19.105Z,17.80
2022-10-04T17:12:56.045Z,18.20
2022-10-04T17:15:51.064Z,17.66
2022-10-04T17:18:28.144Z,17.54
2022-10-04T17:21:04.256Z,17.20
2022-10-04T17:23:54.872Z,17.49
2022-10-04T17:26:39.578Z,16.90
2022-10-04T17:29:24.358Z,16.12
2022-10-04T17:32:01.338Z,15.89
2022-10-04T17:34:43.894Z,16.00
2022-10-04T17:37:26.582Z,15.46
2022-10-04T17:40:10.331Z,17.06
2022-10-04T17:42:46.329Z,17.15
2022-10-04T17:45:25.180Z,16.76
2022-10-04T17:48:20.388Z,17.65
2022-10-04T17:51:16.111Z,16.80
2022-10-04T17:54:09.832Z,16.85
2022-10-04T17:56:44.199Z,17.01
2022-10-04T17:59:18.284Z,16.93
2022-10-04T18:01:51.478Z,16.05
2022-10-04T18:04:23.665Z,16.43
2022-10-04T18:06:58.460Z,16.52
2022-10-04T18:09:33.717Z,17.01
2022-10-04T18:12:06.337Z,16.43
2022-10-04T18:14:52.548Z,16.37
2022-10-04T18:17:31.045Z,16.62
2022-10-04T18:20:18.027Z,17.06
2022-10-04T18:22:48.911Z,16.78
2022-10-04T18:25:23.436Z,16.60
2022-10-04T18:27:55.047Z,16.74
2022-10-04T18:30:24.351Z,16.96
2022-10-04T18:32:55.383Z,16.83
2022-10-04T18:35:27.834Z,16.63
2022-10-04T18:37:59.645Z,16.54
2022-10-04T18:40:34.766Z,16.74
2022-10-04T18:43:03.276Z,16.08
2022-10-04T18:45:33.879Z,16.68
2022-10-04T18:48:03.931Z,16.01
2022-10-04T18:50:36.015Z,16.41
2022-10-04T18:53:32.961Z,16.49
2022-10-04T18:56:06.569Z,16.67
2022-10-04T18:59:17.448Z,16.79
2022-10-04T19:02:03.441Z,16.71
2022-10-04T19:05:02.266Z,16.59
2022-10-04T19:07:40.337Z,17.14
2022-10-04T19:10:17.466Z,17.14
2022-10-04T19:12:54.100Z,17.01
2022-10-04T19:15:44.809Z,17.00
2022-10-04T19:18:36.963Z,16.89
2022-10-04T19:21:17.548Z,17.06
2022-10-04T19:24:02.693Z,17.42
2022-10-04T19:26:37.290Z,17.48
2022-10-04T19:29:17.808Z,17.56
2022-10-04T19:31:55.257Z,17.67
2022-10-04T19:34:34.480Z,17.39
2022-10-04T19:37:10.273Z,17.15
2022-10-04T19:39:51.726Z,17.44
2022-10-04T19:42:29.780Z,17.09
2022-10-04T19:45:16.808Z,16.67
2022-10-04T19:47:50.631Z,17.11
2022-10-04T19:50:25.800Z,17.32
2022-10-04T19:52:58.885Z,17.29
2022-10-04T19:55:42.395Z,17.27
2022-10-04T19:58:32.044Z,17.26
2022-10-04T20:01:01.887Z,17.23
2022-10-04T20:03:30.324Z,17.08
2022-10-04T20:05:58.753Z,17.09
2022-10-04T20:09:01.841Z,17.12
2022-10-04T20:11:49.740Z,16.93
2022-10-04T20:14:54.673Z,16.91
2022-10-04T20:17:42.552Z,16.33
2022-10-04T20:20:15.500Z,16.51
2022-10-04T20:22:58.099Z,16.64
2022-10-04T20:26:00.953Z,16.62
2022-10-04T20:28:43.579Z,16.66
2022-10-04T20:31:28.152Z,16.60
2022-10-04T20:34:34.393Z,16.26
2022-10-04T20:37:02.926Z,16.03
2022-10-04T20:40:01.212Z,16.00
2022-10-04T20:42:37.628Z,15.93
2022-10-04T20:45:28.028Z,15.81
2022-10-04T20:47:58.375Z,15.67
2022-10-04T20:50:32.888Z,15.57
2022-10-04T20:53:04.277Z,15.23
2022-10-04T20:55:34.924Z,15.30
2022-10-04T20:58:05.451Z,14.99
2022-10-04T21:00:35.752Z,15.09
2022-10-04T21:03:16.339Z,15.10
2022-10-04T21:05:52.512Z,14.87
2022-10-04T21:08:26.008Z,15.04
2022-10-04T21:11:19.469Z,14.92
2022-10-04T21:13:59.025Z,14.05
2022-10-04T21:16:41.602Z,14.02
2022-10-04T21:19:49.190Z,13.55
2022-10-04T21:22:38.020Z,13.48
2022-10-04T21:25:41.215Z,13.47
2022-10-04T21:28:35.121Z,13.71
2022-10-04T21:31:04.848Z,13.81
2022-10-04T21:33:34.477Z,13.30
2022-10-04T21:36:03.050Z,13.33
2022-10-04T21:38:33.222Z,13.30
2022-10-04T21:41:01.582Z,13.62
2022-10-04T21:43:30.152Z,14.08
2022-10-04T21:45:58.440Z,14.22
2022-10-04T21:48:27.556Z,14.54
2022-10-04T21:50:56.572Z,14.59
2022-10-04T21:53:24.845Z,14.81
2022-10-04T21:55:54.472Z,14.92
2022-10-04T21:58:23.019Z,15.01
2022-10-04T22:00:51.422Z,14.07
2022-10-04T22:03:19.730Z,14.40
2022-10-04T22:05:47.927Z,14.84
2022-10-04T22:08:16.240Z,14.88
2022-10-04T22:10:45.711Z,14.92
2022-10-04T22:13:15.498Z,14.91
2022-10-04T22:15:43.677Z,14.99
2022-10-04T22:18:11.994Z,14.82
2022-10-04T22:20:40.341Z,14.32
2022-10-04T22:23:16.144Z,14.15
2022-10-04T22:25:44.420Z,14.21
2022-10-04T22:28:20.548Z,14.69
2022-10-04T22:30:49.721Z,14.81
2022-10-04T22:33:29.331Z,14.51
2022-10-04T22:35:59.244Z,14.56
2022-10-04T22:38:27.484Z,13.91
2022-10-04T22:40:55.768Z,14.44
2022-10-04T22:43:25.485Z,14.63
2022-10-04T22:45:55.735Z,14.48
2022-10-04T22:48:26.768Z,14.20
2022-10-04T22:50:55.073Z,14.43
2022-10-04T22:53:24.597Z,14.58
2022-10-04T22:55:56.002Z,14.36
2022-10-04T22:58:25.641Z,14.10
2022-10-04T23:00:56.220Z,14.10
2022-10-04T23:03:31.423Z,14.03
2022-10-04T23:06:00.374Z,13.64
2022-10-04T23:08:29.567Z,13.12
2022-10-04T23:10:59.668Z,12.68
2022-10-04T23:13:29.349Z,12.39
2022-10-04T23:16:00.566Z,12.74
2022-10-04T23:18:30.458Z,12.48
2022-10-04T23:21:01.275Z,13.41
2022-10-04T23:23:31.813Z,13.89
2022-10-04T23:26:00.094Z,14.07
2022-10-04T23:28:30.096Z,14.17
2022-10-04T23:31:03.988Z,14.25
2022-10-04T23:33:32.272Z,14.34
2022-10-04T23:36:00.476Z,13.95
2022-10-04T23:38:30.597Z,14.17
2022-10-04T23:40:59.256Z,13.91
2022-10-04T23:43:29.220Z,14.13
2022-10-04T23:45:59.530Z,14.34
2022-10-04T23:48:29.235Z,13.55
2022-10-04T23:51:00.139Z,13.93
2022-10-04T23:53:30.745Z,14.18
2022-10-04T23:56:00.558Z,14.34
2022-10-04T23:58:36.104Z,13.59
